createdAt,value
2023-05-09T00:00:34.345Z,6.07
2023-05-09T00:03:36.592Z,6.15
2023-05-09T00:06:38.438Z,6.75
2023-05-09T00:09:40.045Z,5.82
2023-05-09T00:12:43.778Z,6.35
2023-05-09T00:15:46.693Z,6.13
2023-05-09T00:18:48.363Z,6.90
2023-05-09T00:21:50.298Z,5.72
2023-05-09T00:24:52.021Z,6.18
2023-05-09T00:27:53.700Z,5.78
2023-05-09T00:30:55.665Z,6.10
2023-05-09T00:33:57.469Z,5.82
2023-05-09T00:36:59.387Z,5.53
2023-05-09T00:40:01.067Z,7.32
2023-05-09T00:43:02.668Z,6.82
2023-05-09T00:46:04.630Z,6.07
2023-05-09T00:49:06.492Z,5.68
2023-05-09T00:52:08.125Z,7.32
2023-05-09T00:55:10.533Z,6.78
2023-05-09T00:58:12.351Z,6.30
2023-05-09T01:01:13.973Z,6.00
2023-05-09T01:04:15.777Z,7.20
2023-05-09T01:07:25.581Z,7.10
2023-05-09T01:10:30.315Z,5.53
2023-05-09T01:13:57.793Z,9.15
2023-05-09T01:17:06.993Z,5.50
2023-05-09T01:20:23.984Z,5.80
2023-05-09T01:23:28.611Z,6.95
2023-05-09T01:27:09.084Z,6.82
2023-05-09T01:30:13.162Z,5.82
2023-05-09T01:33:18.516Z,6.23
2023-05-09T01:36:21.504Z,6.25
2023-05-09T01:39:25.499Z,6.45
2023-05-09T01:42:30.955Z,6.88
2023-05-09T01:45:34.072Z,6.15
2023-05-09T01:48:37.665Z,5.93
2023-05-09T01:51:43.038Z,7.20
2023-05-09T01:54:46.544Z,6.75
2023-05-09T01:57:49.427Z,7.53
2023-05-09T02:00:51.926Z,6.68
2023-05-09T02:03:54.642Z,6.13
2023-05-09T02:06:57.696Z,7.75
2023-05-09T02:10:00.836Z,6.88
2023-05-09T02:13:02.537Z,6.32
2023-05-09T02:16:06.353Z,6.13
2023-05-09T02:19:08.293Z,6.47
2023-05-09T02:22:12.052Z,5.43
2023-05-09T02:25:17.204Z,5.70
2023-05-09T02:28:21.017Z,6.10
2023-05-09T02:31:25.899Z,6.25
2023-05-09T02:34:27.825Z,6.77
2023-05-09T02:37:29.832Z,6.35
2023-05-09T02:40:31.485Z,7.43
2023-05-09T02:43:33.220Z,8.35
2023-05-09T02:46:34.907Z,6.85
2023-05-09T02:49:36.595Z,7.50
2023-05-09T02:52:38.365Z,6.68
2023-05-09T02:55:39.961Z,6.15
2023-05-09T02:58:41.615Z,6.85
2023-05-09T03:01:43.326Z,7.43
2023-05-09T03:04:44.946Z,9.30
2023-05-09T03:07:46.572Z,6.60
2023-05-09T03:10:48.277Z,7.40
2023-05-09T03:13:49.841Z,7.20
2023-05-09T03:16:51.540Z,7.40
2023-05-09T03:19:53.142Z,7.30
2023-05-09T03:22:54.872Z,6.38
2023-05-09T03:25:56.642Z,6.10
2023-05-09T03:28:59.066Z,6.43
2023-05-09T03:32:00.851Z,8.30
2023-05-09T03:35:04.100Z,7.00
2023-05-09T03:38:05.798Z,8.18
2023-05-09T03:41:07.398Z,7.32
2023-05-09T03:44:09.268Z,6.78
2023-05-09T03:47:10.920Z,6.85
2023-05-09T03:50:12.546Z,7.10
2023-05-09T03:53:14.274Z,6.72
2023-05-09T03:56:15.872Z,7.57
2023-05-09T03:59:17.447Z,9.25
2023-05-09T04:02:19.201Z,6.30
2023-05-09T04:05:21.135Z,7.27
2023-05-09T04:08:23.203Z,8.30
2023-05-09T04:11:24.883Z,6.85
2023-05-09T04:14:26.496Z,6.57
2023-05-09T04:17:28.231Z,6.85
2023-05-09T04:20:31.257Z,7.77
2023-05-09T04:23:32.962Z,5.55
2023-05-09T04:26:38.317Z,7.80
2023-05-09T04:29:40.006Z,6.72
2023-05-09T04:32:45.904Z,7.00
2023-05-09T04:35:48.703Z,6.63
2023-05-09T04:38:50.410Z,6.20
2023-05-09T04:41:52.567Z,6.82
2023-05-09T04:44:54.179Z,6.82
2023-05-09T04:47:55.903Z,7.18
2023-05-09T04:50:57.640Z,5.77
2023-05-09T04:53:59.418Z,6.15
2023-05-09T04:57:13.782Z,6.32
2023-05-09T05:00:19.591Z,5.65
2023-05-09T05:03:21.242Z,7.80
2023-05-09T05:06:22.853Z,7.20
2023-05-09T05:09:24.516Z,7.30
2023-05-09T05:12:26.123Z,7.25
2023-05-09T05:15:27.771Z,6.68
2023-05-09T05:18:29.362Z,6.03
2023-05-09T05:21:31.141Z,6.77
2023-05-09T05:24:32.704Z,6.55
2023-05-09T05:27:34.328Z,6.65
2023-05-09T05:30:36.089Z,7.25
2023-05-09T05:33:37.665Z,6.18
2023-05-09T05:36:39.319Z,7.33
2023-05-09T05:39:40.896Z,5.53
2023-05-09T05:42:44.256Z,6.07
2023-05-09T05:45:45.947Z,5.68
2023-05-09T05:48:47.618Z,5.15
2023-05-09T05:51:49.269Z,4.90
2023-05-09T05:54:50.928Z,5.22
2023-05-09T05:57:52.572Z,5.30
2023-05-09T06:00:54.219Z,6.00
2023-05-09T06:03:56.141Z,6.72
2023-05-09T06:06:58.130Z,5.23
2023-05-09T06:09:59.853Z,6.10
2023-05-09T06:13:01.534Z,5.07
2023-05-09T06:16:15.131Z,5.65
2023-05-09T06:19:20.039Z,5.45
2023-05-09T06:22:21.664Z,5.77
2023-05-09T06:25:23.295Z,5.13
2023-05-09T06:28:25.094Z,6.22
2023-05-09T06:31:27.025Z,7.10
2023-05-09T06:34:28.863Z,8.73
2023-05-09T06:37:33.886Z,5.77
2023-05-09T06:40:35.607Z,5.50
2023-05-09T06:43:37.235Z,5.82
2023-05-09T06:46:38.918Z,5.68
2023-05-09T06:49:40.715Z,8.80
2023-05-09T06:52:42.390Z,5.00
2023-05-09T06:55:44.433Z,5.63
2023-05-09T06:58:46.161Z,5.88
2023-05-09T07:01:47.799Z,7.05
2023-05-09T07:04:49.604Z,6.35
2023-05-09T07:07:52.150Z,5.60
2023-05-09T07:10:53.828Z,6.57
2023-05-09T07:13:55.529Z,6.28
2023-05-09T07:17:09.877Z,7.38
2023-05-09T07:20:15.793Z,5.63
2023-05-09T07:23:17.636Z,4.93
2023-05-09T07:26:19.260Z,5.18
2023-05-09T07:29:20.890Z,4.68
2023-05-09T07:32:22.492Z,5.13
2023-05-09T07:35:24.252Z,4.60
2023-05-09T07:38:26.475Z,4.70
2023-05-09T07:41:28.140Z,4.47
2023-05-09T07:44:30.123Z,5.10
2023-05-09T07:47:32.794Z,3.70
2023-05-09T07:50:34.399Z,5.45
2023-05-09T07:53:36.375Z,4.80
2023-05-09T07:56:38.000Z,4.43
2023-05-09T07:59:39.598Z,4.10
2023-05-09T08:02:41.663Z,3.75
2023-05-09T08:05:43.454Z,3.35
2023-05-09T08:08:45.164Z,4.90
2023-05-09T08:11:46.917Z,3.50
2023-05-09T08:14:48.979Z,4.35
2023-05-09T08:17:50.795Z,4.20
2023-05-09T08:20:52.892Z,4.85
2023-05-09T08:23:55.791Z,4.57
2023-05-09T08:26:57.553Z,3.53
2023-05-09T08:29:59.341Z,3.78
2023-05-09T08:33:01.564Z,4.28
2023-05-09T08:36:03.682Z,3.47
2023-05-09T08:39:05.953Z,3.13
2023-05-09T08:42:09.573Z,4.32
2023-05-09T08:45:14.746Z,2.85
2023-05-09T08:48:17.059Z,2.63
2023-05-09T08:51:19.403Z,2.90
2023-05-09T08:54:22.988Z,3.77
2023-05-09T08:57:24.801Z,3.90
2023-05-09T09:00:26.766Z,3.20
2023-05-09T09:03:28.850Z,3.30
2023-05-09T09:06:32.215Z,3.67
2023-05-09T09:09:36.276Z,3.67
2023-05-09T09:12:39.197Z,2.80
2023-05-09T09:15:43.800Z,3.53
2023-05-09T09:18:46.312Z,3.47
2023-05-09T09:21:49.828Z,4.03
2023-05-09T09:24:51.547Z,2.80
2023-05-09T09:27:53.181Z,3.38
2023-05-09T09:30:54.866Z,3.92
2023-05-09T09:34:01.387Z,4.38
2023-05-09T09:37:04.531Z,4.93
2023-05-09T09:40:10.595Z,1.80
2023-05-09T09:43:12.257Z,2.72
2023-05-09T09:46:16.406Z,4.63
2023-05-09T09:49:23.327Z,2.08
2023-05-09T09:52:25.223Z,2.17
2023-05-09T09:55:27.043Z,4.43
2023-05-09T09:58:28.727Z,3.13
2023-05-09T10:01:30.539Z,2.90
2023-05-09T10:04:34.424Z,2.65
2023-05-09T10:07:36.392Z,2.20
2023-05-09T10:10:38.300Z,2.00
2023-05-09T10:13:39.967Z,2.88
2023-05-09T10:16:44.465Z,2.63
2023-05-09T10:19:48.616Z,4.05
2023-05-09T10:22:52.015Z,2.20
2023-05-09T10:26:29.102Z,1.70
2023-05-09T10:29:36.348Z,4.32
2023-05-09T10:32:52.685Z,3.95
2023-05-09T10:35:56.422Z,4.13
2023-05-09T10:38:58.798Z,2.08
2023-05-09T10:42:00.885Z,3.70
2023-05-09T10:45:03.160Z,2.65
2023-05-09T10:48:08.776Z,3.35
2023-05-09T10:51:12.602Z,3.78
2023-05-09T10:54:25.502Z,2.78
2023-05-09T10:57:29.249Z,3.83
2023-05-09T11:00:30.998Z,3.13
2023-05-09T11:03:56.486Z,2.83
2023-05-09T11:07:00.052Z,3.30
2023-05-09T11:10:18.407Z,2.58
2023-05-09T11:13:23.943Z,2.93
2023-05-09T11:16:26.495Z,4.10
2023-05-09T11:19:38.677Z,3.22
2023-05-09T11:22:42.669Z,2.70
2023-05-09T11:25:47.713Z,3.25
2023-05-09T11:28:54.008Z,3.80
2023-05-09T11:32:07.190Z,2.95
2023-05-09T11:35:12.428Z,3.15
2023-05-09T11:38:21.150Z,2.40
2023-05-09T11:41:22.972Z,3.28
2023-05-09T11:44:24.847Z,3.17
2023-05-09T11:47:28.916Z,2.75
2023-05-09T11:50:30.606Z,4.13
2023-05-09T11:53:32.408Z,3.42
2023-05-09T11:56:40.239Z,2.83
2023-05-09T11:59:42.081Z,2.77
2023-05-09T12:02:46.178Z,3.60
2023-05-09T12:05:49.029Z,3.03
2023-05-09T12:08:50.789Z,3.22
2023-05-09T12:11:52.642Z,2.70
2023-05-09T12:14:54.710Z,2.33
2023-05-09T12:18:07.934Z,4.40
2023-05-09T12:21:09.894Z,2.72
2023-05-09T12:24:11.577Z,2.72
2023-05-09T12:27:13.326Z,3.75
2023-05-09T12:30:16.184Z,3.83
2023-05-09T12:33:18.667Z,2.85
2023-05-09T12:36:20.968Z,3.40
2023-05-09T12:39:23.148Z,3.97
2023-05-09T12:42:27.936Z,3.28
2023-05-09T12:45:32.962Z,3.53
2023-05-09T12:48:37.984Z,4.13
2023-05-09T12:51:48.684Z,2.47
2023-05-09T12:54:52.974Z,3.72
2023-05-09T12:58:00.198Z,3.58
2023-05-09T13:01:04.889Z,3.00
2023-05-09T13:04:07.718Z,3.00
2023-05-09T13:07:13.298Z,2.83
2023-05-09T13:10:25.132Z,3.10
2023-05-09T13:13:27.871Z,2.67
2023-05-09T13:16:29.739Z,3.07
2023-05-09T13:19:31.684Z,3.22
2023-05-09T13:22:33.552Z,4.00
2023-05-09T13:25:35.271Z,3.78
2023-05-09T13:28:38.130Z,3.05
2023-05-09T13:31:39.761Z,3.37
2023-05-09T13:34:41.886Z,3.28
2023-05-09T13:37:43.743Z,3.05
2023-05-09T13:40:45.383Z,3.65
2023-05-09T13:43:47.222Z,3.25
2023-05-09T13:46:48.974Z,3.53
2023-05-09T13:49:50.596Z,4.47
2023-05-09T13:52:52.864Z,3.00
2023-05-09T13:55:54.491Z,2.50
2023-05-09T13:58:56.124Z,3.00
2023-05-09T14:02:00.014Z,3.10
2023-05-09T14:05:03.220Z,3.35
2023-05-09T14:08:05.009Z,3.90
2023-05-09T14:11:07.562Z,3.80
2023-05-09T14:14:09.284Z,3.65
2023-05-09T14:17:10.872Z,3.23
2023-05-09T14:20:15.701Z,3.25
2023-05-09T14:23:17.647Z,3.25
2023-05-09T14:26:19.220Z,3.80
2023-05-09T14:29:21.363Z,3.30
2023-05-09T14:32:23.042Z,3.37
2023-05-09T14:35:24.687Z,2.58
2023-05-09T14:38:26.422Z,3.47
2023-05-09T14:41:28.080Z,3.17
2023-05-09T14:44:29.635Z,5.20
2023-05-09T14:47:31.419Z,2.97
2023-05-09T14:50:33.413Z,3.88
2023-05-09T14:53:39.709Z,4.00
2023-05-09T14:56:44.030Z,3.25
2023-05-09T14:59:45.603Z,3.60
2023-05-09T15:02:47.363Z,3.27
2023-05-09T15:05:50.468Z,4.57
2023-05-09T15:08:52.153Z,2.40
2023-05-09T15:11:54.881Z,3.40
2023-05-09T15:14:58.883Z,3.10
2023-05-09T15:18:02.290Z,3.37
2023-05-09T15:21:04.172Z,3.17
2023-05-09T15:24:06.244Z,4.10
2023-05-09T15:27:08.536Z,3.88
2023-05-09T15:30:10.708Z,3.28
2023-05-09T15:33:13.289Z,3.60
2023-05-09T15:36:15.232Z,3.50
2023-05-09T15:39:16.961Z,2.38
2023-05-09T15:42:19.249Z,2.55
2023-05-09T15:45:21.032Z,3.95
2023-05-09T15:48:23.031Z,3.33
2023-05-09T15:51:25.063Z,3.78
2023-05-09T15:54:27.632Z,3.20
2023-05-09T15:57:29.424Z,3.30
2023-05-09T16:00:31.168Z,3.17
2023-05-09T16:03:32.880Z,2.73
2023-05-09T16:06:34.983Z,3.08
2023-05-09T16:09:37.394Z,3.03
2023-05-09T16:12:39.950Z,4.32
2023-05-09T16:15:41.659Z,2.92
2023-05-09T16:18:43.336Z,3.10
2023-05-09T16:21:48.428Z,20.27
2023-05-09T16:24:50.079Z,3.13
2023-05-09T16:27:51.672Z,3.00
2023-05-09T16:30:53.961Z,5.35
2023-05-09T16:33:55.580Z,4.17
2023-05-09T16:36:57.325Z,3.92
2023-05-09T16:39:59.604Z,3.20
2023-05-09T16:43:01.158Z,3.72
2023-05-09T16:46:03.092Z,5.20
2023-05-09T16:49:04.905Z,3.33
2023-05-09T16:52:06.554Z,3.58
2023-05-09T16:55:08.574Z,3.15
2023-05-09T16:58:10.940Z,2.78
2023-05-09T17:01:12.665Z,2.90
2023-05-09T17:04:14.679Z,3.33
2023-05-09T17:07:16.463Z,3.10
2023-05-09T17:10:18.354Z,3.50
2023-05-09T17:13:20.195Z,4.20
2023-05-09T17:16:21.888Z,3.20
2023-05-09T17:19:23.826Z,3.77
2023-05-09T17:22:25.474Z,3.58
2023-05-09T17:25:27.505Z,3.25
2023-05-09T17:28:29.180Z,2.85
2023-05-09T17:31:31.545Z,4.18
2023-05-09T17:34:33.504Z,3.20
2023-05-09T17:37:35.625Z,3.80
2023-05-09T17:40:38.200Z,5.18
2023-05-09T17:43:39.880Z,3.45
2023-05-09T17:46:41.883Z,4.20
2023-05-09T17:49:45.350Z,3.33
2023-05-09T17:52:49.489Z,3.03
2023-05-09T17:55:51.303Z,3.72
2023-05-09T17:58:53.195Z,3.88
2023-05-09T18:01:55.104Z,5.60
2023-05-09T18:04:56.739Z,5.87
2023-05-09T18:08:00.843Z,4.20
2023-05-09T18:11:02.986Z,4.82
2023-05-09T18:14:04.602Z,4.05
2023-05-09T18:17:06.204Z,3.58
2023-05-09T18:20:08.745Z,4.03
2023-05-09T18:23:11.418Z,3.13
2023-05-09T18:26:13.061Z,4.20
2023-05-09T18:29:14.739Z,4.40
2023-05-09T18:32:17.643Z,3.72
2023-05-09T18:35:19.552Z,4.20
2023-05-09T18:38:21.910Z,4.00
2023-05-09T18:41:24.906Z,4.00
2023-05-09T18:44:27.646Z,4.20
2023-05-09T18:47:29.356Z,4.18
2023-05-09T18:50:31.550Z,5.50
2023-05-09T18:53:33.251Z,3.75
2023-05-09T18:56:39.297Z,4.50
2023-05-09T18:59:41.004Z,4.82
2023-05-09T19:02:42.628Z,4.65
2023-05-09T19:05:46.000Z,3.93
2023-05-09T19:08:48.237Z,4.30
2023-05-09T19:11:49.802Z,4.20
2023-05-09T19:14:54.569Z,4.88
2023-05-09T19:17:56.244Z,4.63
2023-05-09T19:20:58.017Z,4.37
2023-05-09T19:23:59.634Z,4.55
2023-05-09T19:27:01.500Z,4.13
2023-05-09T19:30:05.297Z,4.05
2023-05-09T19:33:06.953Z,4.15
2023-05-09T19:36:08.654Z,4.37
2023-05-09T19:39:11.210Z,5.75
2023-05-09T19:42:12.817Z,4.57
2023-05-09T19:45:14.394Z,4.22
2023-05-09T19:48:16.027Z,4.75
2023-05-09T19:51:17.920Z,4.30
2023-05-09T19:54:19.514Z,5.82
2023-05-09T19:57:21.096Z,6.40
2023-05-09T20:00:22.994Z,4.18
2023-05-09T20:03:24.790Z,5.43
2023-05-09T20:06:26.709Z,5.43
2023-05-09T20:09:28.478Z,4.82
2023-05-09T20:12:30.504Z,4.18
2023-05-09T20:15:32.364Z,9.25
2023-05-09T20:18:33.964Z,4.32
2023-05-09T20:21:35.648Z,6.20
2023-05-09T20:24:37.226Z,6.35
2023-05-09T20:27:38.918Z,3.97
2023-05-09T20:30:40.578Z,4.15
2023-05-09T20:33:42.228Z,4.72
2023-05-09T20:36:48.416Z,4.27
2023-05-09T20:39:50.028Z,4.57
2023-05-09T20:42:52.730Z,4.53
2023-05-09T20:45:54.389Z,4.38
2023-05-09T20:48:56.102Z,3.63
2023-05-09T20:51:57.648Z,3.60
2023-05-09T20:54:59.308Z,4.72
2023-05-09T20:58:00.957Z,4.25
2023-05-09T21:01:02.655Z,3.83
2023-05-09T21:04:05.883Z,3.58
2023-05-09T21:07:07.598Z,3.77
2023-05-09T21:10:10.395Z,4.95
2023-05-09T21:13:12.117Z,4.18
2023-05-09T21:16:13.810Z,4.60
2023-05-09T21:19:15.497Z,4.97
2023-05-09T21:22:17.601Z,3.43
2023-05-09T21:25:19.352Z,5.43
2023-05-09T21:28:20.960Z,3.20
2023-05-09T21:31:22.697Z,4.75
2023-05-09T21:34:24.388Z,6.45
2023-05-09T21:37:26.076Z,3.80
2023-05-09T21:40:27.633Z,5.03
2023-05-09T21:43:29.542Z,3.72
2023-05-09T21:46:33.146Z,5.47
2023-05-09T21:49:34.787Z,5.13
2023-05-09T21:52:36.425Z,5.57
2023-05-09T21:55:38.071Z,4.30
2023-05-09T21:58:39.762Z,4.38
2023-05-09T22:01:42.123Z,4.55
2023-05-09T22:04:45.857Z,3.60
2023-05-09T22:07:47.696Z,4.00
2023-05-09T22:10:49.299Z,4.07
2023-05-09T22:13:50.843Z,3.95
2023-05-09T22:16:52.476Z,4.75
2023-05-09T22:19:54.107Z,5.82
2023-05-09T22:22:56.494Z,5.00
2023-05-09T22:25:58.249Z,3.97
2023-05-09T22:29:00.275Z,4.70
2023-05-09T22:32:03.189Z,4.78
2023-05-09T22:35:05.178Z,5.18
2023-05-09T22:38:06.758Z,4.43
2023-05-09T22:41:08.580Z,4.53
2023-05-09T22:44:10.169Z,4.30
2023-05-09T22:47:11.965Z,4.38
2023-05-09T22:50:13.759Z,4.40
2023-05-09T22:53:15.737Z,5.07
2023-05-09T22:56:17.414Z,4.80
2023-05-09T22:59:19.228Z,4.90
2023-05-09T23:02:21.233Z,4.85
2023-05-09T23:05:22.901Z,6.05
2023-05-09T23:08:24.528Z,4.23
2023-05-09T23:11:27.317Z,4.90
2023-05-09T23:14:28.960Z,5.00
2023-05-09T23:17:30.769Z,5.50
2023-05-09T23:20:32.507Z,4.18
2023-05-09T23:23:34.182Z,5.67
2023-05-09T23:26:37.005Z,5.88
2023-05-09T23:29:38.703Z,5.57
2023-05-09T23:32:40.302Z,5.07
2023-05-09T23:35:41.961Z,4.97
2023-05-09T23:38:43.550Z,4.73
2023-05-09T23:41:45.212Z,4.90
2023-05-09T23:44:46.905Z,5.18
2023-05-09T23:47:48.542Z,5.00
2023-05-09T23:50:51.517Z,4.78
2023-05-09T23:53:55.385Z,4.73
2023-05-09T23:56:58.104Z,4.65
2023-05-09T23:59:59.684Z,5.88
